Sagapo — DGTR2 — position and weather

sailwx.info

Track history (hours):
 
Tides and Currents Weather Stations Pressure Air Temp Water Temp Dewpoint Dewpoint Depression Visibility Wind Speed Wind Dir Waves Ship Positions

Sagapo

Last reported at 2017-Sep-14 12:00 UTC. Time now 2017-Nov-19 14:18 UTC.
Position N 37°14' E 023°19'.
Warning: this ship's position is months out of date.

Length 16 m.

MMSI: 211464750.

Date/timePositionNaut miles runAvg speedWind from/ knotsBaromVisibWave heightAir tempDewpointWater temp
2017-Sep-14 12:00N 37°14' E 023°19'4 7.3
2017-Sep-14 11:27N 37°13' E 023°24'4 7.2
2017-Sep-14 10:52N 37°12' E 023°29'  
2017-Sep-10 10:29N 37°08' E 024°56'3 6.1
2017-Sep-10 10:00N 37°09' E 024°60'4 7.3
2017-Sep-10 09:30N 37°09' E 025°04'6 7.3
2017-Sep-10 08:42N 37°09' E 025°12'2 0.0
2017-Sep-08 12:13N 37°08' E 025°13'0 0.0
2017-Sep-08 11:58N 37°08' E 025°13'0 0.0
2017-Sep-08 11:28N 37°08' E 025°13'0 0.0
2017-Sep-08 10:25N 37°08' E 025°13'1 0.0
2017-Sep-07 09:17N 37°09' E 025°14'0 0.0
2017-Sep-07 08:59N 37°09' E 025°14'0 0.0
2017-Sep-07 08:29N 37°09' E 025°14'0 0.0
2017-Sep-06 17:07N 37°09' E 025°14'0 0.0
2017-Sep-06 16:58N 37°09' E 025°14'0 0.0
2017-Sep-05 14:08N 37°09' E 025°14'0 0.0
2017-Sep-05 14:00N 37°09' E 025°14'1 1.1
2017-Sep-05 13:30N 37°09' E 025°14'3 5.6
2017-Sep-05 13:00N 37°09' E 025°18'3 6.0
2017-Sep-05 12:30N 37°06' E 025°17'2 4.4
2017-Sep-05 12:00N 37°04' E 025°17'2 3.8
2017-Sep-05 11:30N 37°02' E 025°16'  
Track history (hours):
 
Tides and Currents Weather Stations Pressure Air Temp Water Temp Dewpoint Dewpoint Depression Visibility Wind Speed Wind Dir Waves Ship Positions

Sagapo

Last reported at 2017-Sep-14 12:00 UTC. Time now 2017-Nov-19 14:18 UTC.
Position N 37°14' E 023°19'.
Warning: this ship's position is months out of date.

Length 16 m.

MMSI: 211464750.

Date/timePositionNaut miles runAvg speedWind from/ knotsBaromVisibWave heightAir tempDewpointWater temp
2017-Sep-14 12:00N 37°14' E 023°19'4 7.3
2017-Sep-14 11:27N 37°13' E 023°24'4 7.2
2017-Sep-14 10:52N 37°12' E 023°29'  
2017-Sep-10 10:29N 37°08' E 024°56'3 6.1
2017-Sep-10 10:00N 37°09' E 024°60'4 7.3
2017-Sep-10 09:30N 37°09' E 025°04'6 7.3
2017-Sep-10 08:42N 37°09' E 025°12'2 0.0
2017-Sep-08 12:13N 37°08' E 025°13'0 0.0
2017-Sep-08 11:58N 37°08' E 025°13'0 0.0
2017-Sep-08 11:28N 37°08' E 025°13'0 0.0
2017-Sep-08 10:25N 37°08' E 025°13'1 0.0
2017-Sep-07 09:17N 37°09' E 025°14'0 0.0
2017-Sep-07 08:59N 37°09' E 025°14'0 0.0
2017-Sep-07 08:29N 37°09' E 025°14'0 0.0
2017-Sep-06 17:07N 37°09' E 025°14'0 0.0
2017-Sep-06 16:58N 37°09' E 025°14'0 0.0
2017-Sep-05 14:08N 37°09' E 025°14'0 0.0
2017-Sep-05 14:00N 37°09' E 025°14'1 1.1
2017-Sep-05 13:30N 37°09' E 025°14'3 5.6
2017-Sep-05 13:00N 37°09' E 025°18'3 6.0
2017-Sep-05 12:30N 37°06' E 025°17'2 4.4
2017-Sep-05 12:00N 37°04' E 025°17'2 3.8
2017-Sep-05 11:30N 37°02' E 025°16'  

Dump ship's entire track history